Time,TemperatureF,DewpointF,PressureIn,WindDirection,WindDirectionDegrees,WindSpeedMPH,WindSpeedGustMPH,Humidity,HourlyPrecipIn,Conditions,Clouds,dailyrainin,SoftwareType,DateUTC
2013-11-07 00:03:00,64.5,63.0,29.99,North,355,1.0,11.0,95,0.00,,,0.47,Wunderground v.1.15,2013-11-07 06:03:00,
2013-11-07 00:08:00,64.5,63.0,29.99,North,360,1.0,1.0,95,0.00,,,0.47,Wunderground v.1.15,2013-11-07 06:08:00,
2013-11-07 00:13:00,64.5,63.0,30.00,NNE,19,1.0,2.0,95,0.00,,,0.47,Wunderground v.1.15,2013-11-07 06:13:00,
2013-11-07 00:18:00,64.5,63.0,30.00,North,351,1.0,1.0,95,0.00,,,0.47,Wunderground v.1.15,2013-11-07 06:18:00,
2013-11-07 00:23:00,64.5,63.0,30.00,NNE,22,1.0,1.0,95,0.00,,,0.48,Wunderground v.1.15,2013-11-07 06:23:00,
2013-11-07 00:28:00,64.5,63.0,30.00,North,355,1.0,2.0,95,0.00,,,0.48,Wunderground v.1.15,2013-11-07 06:28:00,
2013-11-07 00:33:00,64.4,62.9,30.00,West,275,1.0,4.0,95,0.00,,,0.00,Wunderground v.1.15,2013-11-07 06:33:00,
2013-11-07 00:38:00,64.4,62.9,30.00,NNE,28,1.0,4.0,95,0.00,,,0.00,Wunderground v.1.15,2013-11-07 06:38:00,
2013-11-07 00:43:00,64.4,62.9,30.00,SE,125,1.0,4.0,95,0.00,,,0.00,Wunderground v.1.15,2013-11-07 06:43:00,
2013-11-07 00:48:00,64.3,62.8,30.00,NE,38,2.0,4.0,95,0.00,,,0.00,Wunderground v.1.15,2013-11-07 06:48:00,
2013-11-07 00:53:00,64.3,62.8,30.00,West,273,2.0,4.0,95,0.00,,,0.00,Wunderground v.1.15,2013-11-07 06:53:00,
2013-11-07 00:58:00,64.3,62.8,30.00,West,269,2.0,2.0,95,0.00,,,0.00,Wunderground v.1.15,2013-11-07 06:58:00,
2013-11-07 01:03:00,64.2,62.7,30.00,NNE,12,2.0,4.0,95,0.00,,,0.00,Wunderground v.1.15,2013-11-07 07:03:00,
2013-11-07 01:08:00,64.2,62.7,30.00,ENE,60,2.0,4.0,95,0.00,,,0.00,Wunderground v.1.15,2013-11-07 07:08:00,
2013-11-07 01:13:00,64.2,62.7,30.00,NNE,26,1.0,4.0,95,0.00,,,0.00,Wunderground v.1.15,2013-11-07 07:13:00,
2013-11-07 01:18:00,64.2,62.7,30.00,NNE,28,1.0,4.0,95,0.00,,,0.00,Wunderground v.1.15,2013-11-07 07:18:00,
2013-11-07 01:23:00,64.1,62.6,30.00,North,360,2.0,4.0,95,0.00,,,0.00,Wunderground v.1.15,2013-11-07 07:23:00,
2013-11-07 01:33:00,64.1,62.6,30.00,NNE,24,2.0,4.0,95,0.00,,,0.00,Wunderground v.1.15,2013-11-07 07:33:00,
2013-11-07 01:43:00,64.1,62.6,30.00,NNE,23,1.0,4.0,95,0.00,,,0.00,Wunderground v.1.15,2013-11-07 07:43:00,
2013-11-07 01:48:00,64.1,62.6,30.00,NNE,32,1.0,1.0,95,0.00,,,0.00,Wunderground v.1.15,2013-11-07 07:48:00,
2013-11-07 01:53:00,64.1,62.6,30.00,NE,34,1.0,2.0,95,0.00,,,0.00,Wunderground v.1.15,2013-11-07 07:53:00,
2013-11-07 01:58:00,64.1,62.6,30.00,NNW,335,1.0,4.0,95,0.00,,,0.00,Wunderground v.1.15,2013-11-07 07:58:00,
2013-11-07 02:03:00,64.0,62.5,30.00,NE,34,2.0,4.0,95,0.00,,,0.00,Wunderground v.1.15,2013-11-07 08:03:00,
2013-11-07 02:08:00,64.0,62.5,30.00,NNE,13,1.0,4.0,95,0.00,,,0.00,Wunderground v.1.15,2013-11-07 08:08:00,
2013-11-07 02:13:00,64.0,62.5,30.00,NNE,16,1.0,4.0,95,0.00,,,0.00,Wunderground v.1.15,2013-11-07 08:13:00,
2013-11-07 02:18:00,63.8,62.3,30.00,West,272,2.0,6.0,95,0.00,,,0.00,Wunderground v.1.15,2013-11-07 08:18:00,
2013-11-07 02:23:00,63.1,61.6,30.00,SW,228,3.0,6.0,95,0.00,,,0.01,Wunderground v.1.15,2013-11-07 08:23:00,
2013-11-07 02:28:00,62.5,60.7,30.01,NNW,338,3.0,3.0,94,0.00,,,0.01,Wunderground v.1.15,2013-11-07 08:28:00,
2013-11-07 02:33:00,62.1,60.4,30.01,NNE,18,3.0,4.0,94,0.00,,,0.01,Wunderground v.1.15,2013-11-07 08:33:00,
2013-11-07 02:38:00,61.7,60.0,30.01,NNE,24,3.0,4.0,94,0.00,,,0.01,Wunderground v.1.15,2013-11-07 08:38:00,
2013-11-07 02:43:00,61.2,59.5,30.02,NNE,22,4.0,4.0,94,0.00,,,0.01,Wunderground v.1.15,2013-11-07 08:43:00,
2013-11-07 02:48:00,60.7,59.0,30.02,NNE,30,4.0,4.0,94,0.00,,,0.01,Wunderground v.1.15,2013-11-07 08:48:00,
2013-11-07 02:53:00,60.5,58.8,30.02,North,5,4.0,4.0,94,0.00,,,0.01,Wunderground v.1.15,2013-11-07 08:53:00,
2013-11-07 02:58:00,60.2,58.5,30.02,NE,48,3.0,4.0,94,0.00,,,0.01,Wunderground v.1.15,2013-11-07 08:58:00,
2013-11-07 03:03:00,60.1,58.4,30.02,NNE,24,3.0,6.0,94,0.00,,,0.01,Wunderground v.1.15,2013-11-07 09:03:00,
2013-11-07 03:08:00,59.8,58.1,30.02,NNE,31,4.0,4.0,94,0.00,,,0.01,Wunderground v.1.15,2013-11-07 09:08:00,
2013-11-07 03:13:00,59.5,57.8,30.03,NE,37,4.0,4.0,94,0.00,,,0.01,Wunderground v.1.15,2013-11-07 09:13:00,
2013-11-07 03:18:00,59.2,57.5,30.03,ENE,70,4.0,4.0,94,0.00,,,0.01,Wunderground v.1.15,2013-11-07 09:18:00,
2013-11-07 03:23:00,58.9,56.9,30.03,NE,46,4.0,6.0,93,0.00,,,0.01,Wunderground v.1.15,2013-11-07 09:23:00,
2013-11-07 03:28:00,58.7,56.7,30.03,NE,50,4.0,6.0,93,0.00,,,0.01,Wunderground v.1.15,2013-11-07 09:28:00,
2013-11-07 03:33:00,58.4,56.4,30.03,West,259,4.0,6.0,93,0.00,,,0.01,Wunderground v.1.15,2013-11-07 09:33:00,
2013-11-07 03:38:00,58.2,56.2,30.03,NNE,32,4.0,7.0,93,0.00,,,0.01,Wunderground v.1.15,2013-11-07 09:38:00,
2013-11-07 03:43:00,57.8,55.8,30.04,NNE,15,3.0,7.0,93,0.00,,,0.01,Wunderground v.1.15,2013-11-07 09:43:00,
2013-11-07 03:48:00,57.5,55.5,30.04,NNW,346,3.0,5.0,93,0.00,,,0.01,Wunderground v.1.15,2013-11-07 09:48:00,
2013-11-07 03:53:00,57.1,55.1,30.04,NNE,17,4.0,5.0,93,0.00,,,0.01,Wunderground v.1.15,2013-11-07 09:53:00,
2013-11-07 03:58:00,56.8,54.8,30.04,North,9,4.0,4.0,93,0.00,,,0.01,Wunderground v.1.15,2013-11-07 09:58:00,
2013-11-07 04:03:00,56.6,54.6,30.04,East,98,4.0,4.0,93,0.00,,,0.01,Wunderground v.1.15,2013-11-07 10:03:00,
2013-11-07 04:08:00,56.5,54.5,30.04,West,263,3.0,4.0,93,0.00,,,0.01,Wunderground v.1.15,2013-11-07 10:08:00,
2013-11-07 04:13:00,56.4,54.4,30.05,NNE,22,3.0,4.0,93,0.00,,,0.01,Wunderground v.1.15,2013-11-07 10:13:00,
2013-11-07 04:18:00,56.2,54.2,30.05,North,349,3.0,3.0,93,0.00,,,0.01,Wunderground v.1.15,2013-11-07 10:18:00,
2013-11-07 04:23:00,56.0,54.0,30.05,NE,34,3.0,4.0,93,0.00,,,0.01,Wunderground v.1.15,2013-11-07 10:23:00,
2013-11-07 04:28:00,55.7,53.7,30.06,NE,42,3.0,7.0,93,0.00,,,0.01,Wunderground v.1.15,2013-11-07 10:28:00,
2013-11-07 04:33:00,55.4,53.4,30.06,NE,41,4.0,7.0,93,0.00,,,0.01,Wunderground v.1.15,2013-11-07 10:33:00,
2013-11-07 04:38:00,55.3,53.3,30.06,NNE,20,4.0,4.0,93,0.00,,,0.01,Wunderground v.1.15,2013-11-07 10:38:00,
2013-11-07 04:43:00,55.0,53.0,30.07,ENE,71,3.0,4.0,93,0.00,,,0.01,Wunderground v.1.15,2013-11-07 10:43:00,
2013-11-07 04:48:00,54.9,52.9,30.07,NNW,346,3.0,4.0,93,0.00,,,0.01,Wunderground v.1.15,2013-11-07 10:48:00,
2013-11-07 04:53:00,54.8,53.1,30.07,NE,42,2.0,4.0,94,0.00,,,0.01,Wunderground v.1.15,2013-11-07 10:53:00,
2013-11-07 04:58:00,54.6,52.9,30.07,NNE,25,3.0,7.0,94,0.00,,,0.01,Wunderground v.1.15,2013-11-07 10:58:00,
2013-11-07 05:03:00,54.4,52.7,30.07,NE,36,3.0,7.0,94,0.00,,,0.01,Wunderground v.1.15,2013-11-07 11:03:00,
2013-11-07 05:08:00,54.3,52.6,30.07,NE,56,3.0,3.0,94,0.00,,,0.01,Wunderground v.1.15,2013-11-07 11:08:00,
2013-11-07 05:13:00,54.2,52.5,30.08,NW,322,3.0,3.0,94,0.00,,,0.01,Wunderground v.1.15,2013-11-07 11:13:00,
2013-11-07 05:18:00,54.1,52.4,30.08,NE,55,2.0,4.0,94,0.00,,,0.01,Wunderground v.1.15,2013-11-07 11:18:00,
2013-11-07 05:23:00,54.0,52.3,30.08,NE,47,2.0,4.0,94,0.00,,,0.01,Wunderground v.1.15,2013-11-07 11:23:00,
2013-11-07 05:33:00,53.5,51.8,30.08,North,5,3.0,6.0,94,0.00,,,0.01,Wunderground v.1.15,2013-11-07 11:33:00,
2013-11-07 05:38:00,53.1,51.1,30.08,NE,56,3.0,10.0,93,0.00,,,0.01,Wunderground v.1.15,2013-11-07 11:38:00,
2013-11-07 05:43:00,52.9,50.9,30.10,NNE,19,3.0,10.0,93,0.00,,,0.01,Wunderground v.1.15,2013-11-07 11:43:00,
2013-11-07 05:48:00,52.8,50.8,30.10,NNE,30,3.0,3.0,93,0.00,,,0.01,Wunderground v.1.15,2013-11-07 11:48:00,
2013-11-07 05:53:00,52.7,50.7,30.10,NE,36,3.0,4.0,93,0.00,,,0.01,Wunderground v.1.15,2013-11-07 11:53:00,
2013-11-07 05:58:00,52.6,50.6,30.11,North,11,2.0,10.0,93,0.00,,,0.01,Wunderground v.1.15,2013-11-07 11:58:00,
2013-11-07 06:03:00,52.5,50.5,30.11,NNE,19,3.0,10.0,93,0.00,,,0.01,Wunderground v.1.15,2013-11-07 12:03:00,
2013-11-07 06:08:00,52.2,50.2,30.11,NE,34,4.0,10.0,93,0.00,,,0.01,Wunderground v.1.15,2013-11-07 12:08:00,
2013-11-07 06:13:00,52.0,50.0,30.12,NNW,333,4.0,10.0,93,0.00,,,0.01,Wunderground v.1.15,2013-11-07 12:13:00,
2013-11-07 06:18:00,51.9,49.9,30.12,North,5,3.0,10.0,93,0.00,,,0.01,Wunderground v.1.15,2013-11-07 12:18:00,
2013-11-07 06:23:00,51.7,49.7,30.12,WNW,297,3.0,10.0,93,0.00,,,0.01,Wunderground v.1.15,2013-11-07 12:23:00,
2013-11-07 06:28:00,51.4,49.4,30.13,NE,36,3.0,3.0,93,0.00,,,0.01,Wunderground v.1.15,2013-11-07 12:28:00,
2013-11-07 06:33:00,51.2,49.2,30.13,NW,325,3.0,10.0,93,0.00,,,0.01,Wunderground v.1.15,2013-11-07 12:33:00,
2013-11-07 06:38:00,51.0,49.0,30.13,NE,53,3.0,10.0,93,0.00,,,0.01,Wunderground v.1.15,2013-11-07 12:38:00,
2013-11-07 06:43:00,50.9,48.9,30.14,NNE,13,3.0,10.0,93,0.00,,,0.01,Wunderground v.1.15,2013-11-07 12:43:00,
2013-11-07 06:48:00,50.8,49.1,30.14,North,350,4.0,4.0,94,0.00,,,0.01,Wunderground v.1.15,2013-11-07 12:48:00,
2013-11-07 06:53:00,50.6,48.9,30.14,NW,310,4.0,5.0,94,0.00,,,0.01,Wunderground v.1.15,2013-11-07 12:53:00,
2013-11-07 06:58:00,50.4,48.7,30.15,NNE,15,4.0,4.0,94,0.00,,,0.01,Wunderground v.1.15,2013-11-07 12:58:00,
2013-11-07 07:03:00,50.2,48.5,30.15,NNE,27,3.0,10.0,94,0.00,,,0.01,Wunderground v.1.15,2013-11-07 13:03:00,
2013-11-07 07:08:00,49.9,48.2,30.15,West,274,4.0,4.0,94,0.00,,,0.01,Wunderground v.1.15,2013-11-07 13:08:00,
2013-11-07 07:13:00,49.6,47.9,30.15,North,355,4.0,10.0,94,0.00,,,0.01,Wunderground v.1.15,2013-11-07 13:13:00,
2013-11-07 07:18:00,49.4,47.7,30.15,NNE,22,4.0,10.0,94,0.00,,,0.01,Wunderground v.1.15,2013-11-07 13:18:00,
2013-11-07 07:23:00,49.2,47.5,30.15,NNE,21,4.0,10.0,94,0.00,,,0.01,Wunderground v.1.15,2013-11-07 13:23:00,
2013-11-07 07:28:00,49.2,47.5,30.16,WNW,301,4.0,4.0,94,0.00,,,0.01,Wunderground v.1.15,2013-11-07 13:28:00,
2013-11-07 07:33:00,49.0,47.3,30.16,NNE,22,5.0,5.0,94,0.00,,,0.01,Wunderground v.1.15,2013-11-07 13:33:00,
2013-11-07 07:38:00,48.8,47.2,30.16,NNE,29,5.0,10.0,94,0.00,,,0.01,Wunderground v.1.15,2013-11-07 13:38:00,
2013-11-07 07:43:00,48.7,47.1,30.17,NE,55,5.0,10.0,94,0.00,,,0.01,Wunderground v.1.15,2013-11-07 13:43:00,
2013-11-07 07:48:00,48.5,46.9,30.17,NE,52,4.0,10.0,94,0.00,,,0.01,Wunderground v.1.15,2013-11-07 13:48:00,
2013-11-07 07:53:00,48.4,46.8,30.17,NE,40,4.0,10.0,94,0.00,,,0.01,Wunderground v.1.15,2013-11-07 13:53:00,
2013-11-07 07:58:00,48.3,46.7,30.18,NE,37,4.0,4.0,94,0.00,,,0.01,Wunderground v.1.15,2013-11-07 13:58:00,
2013-11-07 08:03:00,48.3,46.7,30.18,NNE,27,4.0,10.0,94,0.00,,,0.01,Wunderground v.1.15,2013-11-07 14:03:00,
2013-11-07 08:08:00,48.2,46.6,30.18,NNE,32,4.0,10.0,94,0.00,,,0.01,Wunderground v.1.15,2013-11-07 14:08:00,
2013-11-07 08:13:00,48.2,46.6,30.18,NNE,24,4.0,10.0,94,0.00,,,0.01,Wunderground v.1.15,2013-11-07 14:13:00,
2013-11-07 08:18:00,48.2,46.6,30.18,North,5,4.0,4.0,94,0.00,,,0.01,Wunderground v.1.15,2013-11-07 14:18:00,
2013-11-07 08:23:00,48.2,46.6,30.18,NNE,24,4.0,10.0,94,0.00,,,0.01,Wunderground v.1.15,2013-11-07 14:23:00,
2013-11-07 08:28:00,48.3,46.7,30.19,NNE,29,3.0,10.0,94,0.00,,,0.01,Wunderground v.1.15,2013-11-07 14:28:00,
2013-11-07 08:33:00,48.2,46.6,30.19,NNE,12,3.0,10.0,94,0.00,,,0.01,Wunderground v.1.15,2013-11-07 14:33:00,
2013-11-07 08:38:00,48.0,46.1,30.19,NNE,26,4.0,10.0,93,0.00,,,0.01,Wunderground v.1.15,2013-11-07 14:38:00,
2013-11-07 08:43:00,48.0,46.4,30.18,NNE,30,4.0,10.0,94,0.00,,,0.01,Wunderground v.1.15,2013-11-07 14:43:00,
2013-11-07 08:48:00,47.9,46.3,30.18,NNE,32,5.0,5.0,94,0.00,,,0.01,Wunderground v.1.15,2013-11-07 14:48:00,
2013-11-07 08:53:00,47.7,45.8,30.18,NNE,29,5.0,10.0,93,0.00,,,0.01,Wunderground v.1.15,2013-11-07 14:53:00,
2013-11-07 08:58:00,47.5,45.6,30.19,NW,317,5.0,5.0,93,0.00,,,0.01,Wunderground v.1.15,2013-11-07 14:58:00,
2013-11-07 09:03:00,47.4,45.5,30.19,NNE,33,5.0,10.0,93,0.00,,,0.01,Wunderground v.1.15,2013-11-07 15:03:00,
2013-11-07 09:08:00,47.4,45.2,30.19,WNW,288,5.0,5.0,92,0.00,,,0.01,Wunderground v.1.15,2013-11-07 15:08:00,
2013-11-07 09:13:00,47.5,45.3,30.20,NNE,17,5.0,6.0,92,0.00,,,0.01,Wunderground v.1.15,2013-11-07 15:13:00,
2013-11-07 09:18:00,47.6,45.4,30.20,NE,53,5.0,10.0,92,0.00,,,0.01,Wunderground v.1.15,2013-11-07 15:18:00,
2013-11-07 09:23:00,47.7,45.2,30.20,NNE,20,4.0,10.0,91,0.00,,,0.01,Wunderground v.1.15,2013-11-07 15:23:00,
2013-11-07 09:28:00,47.7,45.2,30.20,North,355,4.0,4.0,91,0.00,,,0.01,Wunderground v.1.15,2013-11-07 15:28:00,
2013-11-07 09:33:00,47.7,45.2,30.20,NNE,21,4.0,9.0,91,0.00,,,0.01,Wunderground v.1.15,2013-11-07 15:33:00,
2013-11-07 09:38:00,47.7,45.2,30.20,NNE,24,4.0,10.0,91,0.00,,,0.01,Wunderground v.1.15,2013-11-07 15:38:00,
2013-11-07 09:43:00,47.7,45.2,30.21,North,349,5.0,10.0,91,0.00,,,0.01,Wunderground v.1.15,2013-11-07 15:43:00,
2013-11-07 09:48:00,47.8,45.0,30.21,NNE,27,4.0,4.0,90,0.00,,,0.01,Wunderground v.1.15,2013-11-07 15:48:00,
2013-11-07 09:53:00,47.8,45.0,30.21,NE,38,3.0,10.0,90,0.00,,,0.01,Wunderground v.1.15,2013-11-07 15:53:00,
2013-11-07 09:58:00,47.9,45.1,30.21,NNE,28,4.0,4.0,90,0.00,,,0.01,Wunderground v.1.15,2013-11-07 15:58:00,
2013-11-07 10:03:00,48.0,44.9,30.21,North,10,4.0,10.0,89,0.00,,,0.01,Wunderground v.1.15,2013-11-07 16:03:00,
2013-11-07 10:08:00,48.1,45.0,30.21,NNE,15,4.0,4.0,89,0.00,,,0.01,Wunderground v.1.15,2013-11-07 16:08:00,
2013-11-07 10:13:00,48.2,45.1,30.21,NNE,21,3.0,10.0,89,0.00,,,0.01,Wunderground v.1.15,2013-11-07 16:13:00,
2013-11-07 10:18:00,48.4,45.3,30.21,NNE,31,3.0,10.0,89,0.00,,,0.01,Wunderground v.1.15,2013-11-07 16:18:00,